sensor_id;sensor_type;location;lat;lon;timestamp;temperature;humidity
69382;DHT22;56560;50.692;12.844;2023-07-31T00:01:22;13.10;78.20
69382;DHT22;56560;50.692;12.844;2023-07-31T00:03:49;13.20;77.80
69382;DHT22;56560;50.692;12.844;2023-07-31T00:06:14;13.20;77.90
69382;DHT22;56560;50.692;12.844;2023-07-31T00:08:40;13.30;77.50
69382;DHT22;56560;50.692;12.844;2023-07-31T00:11:05;13.30;77.10
69382;DHT22;56560;50.692;12.844;2023-07-31T00:13:31;13.30;77.00
69382;DHT22;56560;50.692;12.844;2023-07-31T00:15:57;13.30;76.90
69382;DHT22;56560;50.692;12.844;2023-07-31T00:18:22;13.30;76.80
69382;DHT22;56560;50.692;12.844;2023-07-31T00:20:48;13.30;76.60
69382;DHT22;56560;50.692;12.844;2023-07-31T00:23:13;13.40;76.70
69382;DHT22;56560;50.692;12.844;2023-07-31T00:25:39;13.40;76.70
69382;DHT22;56560;50.692;12.844;2023-07-31T00:28:06;13.40;76.30
69382;DHT22;56560;50.692;12.844;2023-07-31T00:30:32;13.50;75.70
69382;DHT22;56560;50.692;12.844;2023-07-31T00:32:57;13.60;75.60
69382;DHT22;56560;50.692;12.844;2023-07-31T00:35:23;13.60;75.40
69382;DHT22;56560;50.692;12.844;2023-07-31T00:37:48;13.60;75.20
69382;DHT22;56560;50.692;12.844;2023-07-31T00:40:14;13.70;74.90
69382;DHT22;56560;50.692;12.844;2023-07-31T00:42:40;13.80;74.60
69382;DHT22;56560;50.692;12.844;2023-07-31T00:45:06;13.90;74.30
69382;DHT22;56560;50.692;12.844;2023-07-31T00:47:31;14.00;74.10
69382;DHT22;56560;50.692;12.844;2023-07-31T00:49:57;14.00;73.90
69382;DHT22;56560;50.692;12.844;2023-07-31T00:52:23;14.10;73.00
69382;DHT22;56560;50.692;12.844;2023-07-31T00:54:50;14.20;72.90
69382;DHT22;56560;50.692;12.844;2023-07-31T00:57:16;14.30;72.60
69382;DHT22;56560;50.692;12.844;2023-07-31T00:59:41;14.40;72.30
69382;DHT22;56560;50.692;12.844;2023-07-31T01:02:07;14.40;72.40
69382;DHT22;56560;50.692;12.844;2023-07-31T01:04:33;14.50;72.00
69382;DHT22;56560;50.692;12.844;2023-07-31T01:07:07;14.60;72.20
69382;DHT22;56560;50.692;12.844;2023-07-31T01:12:27;14.60;71.30
69382;DHT22;56560;50.692;12.844;2023-07-31T01:17:26;14.70;71.10
69382;DHT22;56560;50.692;12.844;2023-07-31T01:19:53;14.70;71.00
69382;DHT22;56560;50.692;12.844;2023-07-31T01:28:19;14.90;70.10
69382;DHT22;56560;50.692;12.844;2023-07-31T01:30:48;15.00;69.70
69382;DHT22;56560;50.692;12.844;2023-07-31T01:33:17;15.00;69.60
69382;DHT22;56560;50.692;12.844;2023-07-31T01:35:45;15.10;69.80
69382;DHT22;56560;50.692;12.844;2023-07-31T01:38:11;15.10;69.00
69382;DHT22;56560;50.692;12.844;2023-07-31T01:40:37;15.20;68.60
69382;DHT22;56560;50.692;12.844;2023-07-31T01:43:03;15.20;68.00
69382;DHT22;56560;50.692;12.844;2023-07-31T01:45:28;15.30;69.00
69382;DHT22;56560;50.692;12.844;2023-07-31T01:47:54;15.30;68.40
69382;DHT22;56560;50.692;12.844;2023-07-31T01:50:19;15.30;68.70
69382;DHT22;56560;50.692;12.844;2023-07-31T01:52:45;15.30;69.30
69382;DHT22;56560;50.692;12.844;2023-07-31T01:55:11;15.40;68.60
69382;DHT22;56560;50.692;12.844;2023-07-31T01:57:37;15.40;68.90
69382;DHT22;56560;50.692;12.844;2023-07-31T02:00:03;15.40;68.80
69382;DHT22;56560;50.692;12.844;2023-07-31T02:02:29;15.40;68.40
69382;DHT22;56560;50.692;12.844;2023-07-31T02:04:55;15.40;68.90
69382;DHT22;56560;50.692;12.844;2023-07-31T02:07:20;15.40;68.90
69382;DHT22;56560;50.692;12.844;2023-07-31T02:09:46;15.40;69.40
69382;DHT22;56560;50.692;12.844;2023-07-31T02:12:13;15.40;70.10
69382;DHT22;56560;50.692;12.844;2023-07-31T02:14:40;15.40;70.80
69382;DHT22;56560;50.692;12.844;2023-07-31T02:17:06;15.20;72.40
69382;DHT22;56560;50.692;12.844;2023-07-31T02:19:31;15.10;72.80
69382;DHT22;56560;50.692;12.844;2023-07-31T02:21:57;14.90;74.50
69382;DHT22;56560;50.692;12.844;2023-07-31T02:24:24;14.80;75.70
69382;DHT22;56560;50.692;12.844;2023-07-31T02:26:49;14.80;76.40
69382;DHT22;56560;50.692;12.844;2023-07-31T02:29:15;14.70;76.60
69382;DHT22;56560;50.692;12.844;2023-07-31T02:31:40;14.60;77.60
69382;DHT22;56560;50.692;12.844;2023-07-31T02:34:06;14.60;78.50
69382;DHT22;56560;50.692;12.844;2023-07-31T02:36:32;14.50;78.70
69382;DHT22;56560;50.692;12.844;2023-07-31T02:38:57;14.40;80.00
69382;DHT22;56560;50.692;12.844;2023-07-31T02:41:23;14.30;80.30
69382;DHT22;56560;50.692;12.844;2023-07-31T02:43:49;14.20;81.00
69382;DHT22;56560;50.692;12.844;2023-07-31T02:46:14;14.20;81.50
69382;DHT22;56560;50.692;12.844;2023-07-31T02:48:40;14.10;82.50
69382;DHT22;56560;50.692;12.844;2023-07-31T02:51:07;14.00;83.30
69382;DHT22;56560;50.692;12.844;2023-07-31T02:53:32;14.00;83.60
69382;DHT22;56560;50.692;12.844;2023-07-31T02:55:58;14.00;83.70
69382;DHT22;56560;50.692;12.844;2023-07-31T02:58:23;13.90;83.30
69382;DHT22;56560;50.692;12.844;2023-07-31T03:00:49;14.00;83.60
69382;DHT22;56560;50.692;12.844;2023-07-31T03:03:15;13.90;84.20
69382;DHT22;56560;50.692;12.844;2023-07-31T03:05:40;13.80;85.20
69382;DHT22;56560;50.692;12.844;2023-07-31T03:08:06;13.80;85.30
69382;DHT22;56560;50.692;12.844;2023-07-31T03:10:31;13.80;85.50
69382;DHT22;56560;50.692;12.844;2023-07-31T03:12:57;13.70;86.20
69382;DHT22;56560;50.692;12.844;2023-07-31T03:15:23;13.70;86.10
69382;DHT22;56560;50.692;12.844;2023-07-31T03:17:48;13.70;87.00
69382;DHT22;56560;50.692;12.844;2023-07-31T03:20:14;13.70;86.90
69382;DHT22;56560;50.692;12.844;2023-07-31T03:22:40;13.70;87.00
69382;DHT22;56560;50.692;12.844;2023-07-31T03:25:06;13.60;86.90
69382;DHT22;56560;50.692;12.844;2023-07-31T03:27:32;13.60;86.90
69382;DHT22;56560;50.692;12.844;2023-07-31T03:29:57;13.60;87.50
69382;DHT22;56560;50.692;12.844;2023-07-31T03:32:23;13.70;87.40
69382;DHT22;56560;50.692;12.844;2023-07-31T03:34:49;13.70;87.80
69382;DHT22;56560;50.692;12.844;2023-07-31T03:37:15;13.60;88.00
69382;DHT22;56560;50.692;12.844;2023-07-31T03:39:40;13.60;88.40
69382;DHT22;56560;50.692;12.844;2023-07-31T03:42:06;13.60;87.90
69382;DHT22;56560;50.692;12.844;2023-07-31T03:44:32;13.60;87.90
69382;DHT22;56560;50.692;12.844;2023-07-31T03:46:57;13.60;88.20
69382;DHT22;56560;50.692;12.844;2023-07-31T03:49:23;13.70;88.00
69382;DHT22;56560;50.692;12.844;2023-07-31T03:51:49;13.70;87.80
69382;DHT22;56560;50.692;12.844;2023-07-31T03:54:15;13.70;87.60
69382;DHT22;56560;50.692;12.844;2023-07-31T03:56:40;13.70;88.40
69382;DHT22;56560;50.692;12.844;2023-07-31T03:59:06;13.60;88.60
69382;DHT22;56560;50.692;12.844;2023-07-31T04:01:32;13.60;89.10
69382;DHT22;56560;50.692;12.844;2023-07-31T04:03:57;13.60;89.10
69382;DHT22;56560;50.692;12.844;2023-07-31T04:06:23;13.60;88.90
69382;DHT22;56560;50.692;12.844;2023-07-31T04:08:49;13.60;88.80
69382;DHT22;56560;50.692;12.844;2023-07-31T04:11:14;13.60;89.10
69382;DHT22;56560;50.692;12.844;2023-07-31T04:13:40;13.60;89.10
69382;DHT22;56560;50.692;12.844;2023-07-31T04:16:06;13.60;88.80
69382;DHT22;56560;50.692;12.844;2023-07-31T04:18:31;13.70;88.30
69382;DHT22;56560;50.692;12.844;2023-07-31T04:20:58;13.80;88.60
69382;DHT22;56560;50.692;12.844;2023-07-31T04:23:24;13.80;88.80
69382;DHT22;56560;50.692;12.844;2023-07-31T04:25:50;13.90;88.40
69382;DHT22;56560;50.692;12.844;2023-07-31T04:28:16;13.90;88.40
69382;DHT22;56560;50.692;12.844;2023-07-31T04:30:41;13.90;88.40
69382;DHT22;56560;50.692;12.844;2023-07-31T04:33:07;14.00;88.10
69382;DHT22;56560;50.692;12.844;2023-07-31T04:35:33;14.00;88.30
69382;DHT22;56560;50.692;12.844;2023-07-31T04:37:58;14.00;88.10
69382;DHT22;56560;50.692;12.844;2023-07-31T04:40:24;14.00;87.70
69382;DHT22;56560;50.692;12.844;2023-07-31T04:42:50;14.10;87.30
69382;DHT22;56560;50.692;12.844;2023-07-31T04:45:15;14.10;87.80
69382;DHT22;56560;50.692;12.844;2023-07-31T04:47:41;14.30;87.60
69382;DHT22;56560;50.692;12.844;2023-07-31T04:50:07;14.30;87.50
69382;DHT22;56560;50.692;12.844;2023-07-31T04:52:33;14.40;85.60
69382;DHT22;56560;50.692;12.844;2023-07-31T04:54:58;14.40;85.90
69382;DHT22;56560;50.692;12.844;2023-07-31T04:57:24;14.50;85.40
69382;DHT22;56560;50.692;12.844;2023-07-31T04:59:49;14.50;85.30
69382;DHT22;56560;50.692;12.844;2023-07-31T05:02:15;14.60;84.60
69382;DHT22;56560;50.692;12.844;2023-07-31T05:04:41;14.70;85.00
69382;DHT22;56560;50.692;12.844;2023-07-31T05:07:06;14.80;84.20
69382;DHT22;56560;50.692;12.844;2023-07-31T05:09:32;14.80;85.00
69382;DHT22;56560;50.692;12.844;2023-07-31T05:11:58;14.90;83.90
69382;DHT22;56560;50.692;12.844;2023-07-31T05:14:25;15.00;84.30
69382;DHT22;56560;50.692;12.844;2023-07-31T05:16:51;14.90;83.90
69382;DHT22;56560;50.692;12.844;2023-07-31T05:19:16;14.90;83.60
69382;DHT22;56560;50.692;12.844;2023-07-31T05:21:42;15.00;83.90
69382;DHT22;56560;50.692;12.844;2023-07-31T05:24:07;15.00;83.30
69382;DHT22;56560;50.692;12.844;2023-07-31T05:26:33;15.00;83.70
69382;DHT22;56560;50.692;12.844;2023-07-31T05:28:59;14.90;83.20
69382;DHT22;56560;50.692;12.844;2023-07-31T05:31:24;15.00;83.30
69382;DHT22;56560;50.692;12.844;2023-07-31T05:33:50;14.90;83.40
69382;DHT22;56560;50.692;12.844;2023-07-31T05:36:17;14.90;83.50
69382;DHT22;56560;50.692;12.844;2023-07-31T05:38:42;15.00;83.00
69382;DHT22;56560;50.692;12.844;2023-07-31T05:41:11;15.00;82.80
69382;DHT22;56560;50.692;12.844;2023-07-31T05:43:36;15.00;82.40
69382;DHT22;56560;50.692;12.844;2023-07-31T05:46:02;15.00;81.90
69382;DHT22;56560;50.692;12.844;2023-07-31T05:48:28;15.10;82.80
69382;DHT22;56560;50.692;12.844;2023-07-31T05:50:53;15.10;82.50
69382;DHT22;56560;50.692;12.844;2023-07-31T05:53:19;15.10;82.40
69382;DHT22;56560;50.692;12.844;2023-07-31T05:55:45;15.20;82.40
69382;DHT22;56560;50.692;12.844;2023-07-31T05:58:11;15.20;82.50
69382;DHT22;56560;50.692;12.844;2023-07-31T06:00:37;15.20;82.20
69382;DHT22;56560;50.692;12.844;2023-07-31T06:03:03;15.20;81.70
69382;DHT22;56560;50.692;12.844;2023-07-31T06:05:28;15.30;81.60
69382;DHT22;56560;50.692;12.844;2023-07-31T06:07:56;15.40;81.60
69382;DHT22;56560;50.692;12.844;2023-07-31T06:10:22;15.40;80.40
69382;DHT22;56560;50.692;12.844;2023-07-31T06:12:48;15.50;80.60
69382;DHT22;56560;50.692;12.844;2023-07-31T06:15:13;15.50;80.50
69382;DHT22;56560;50.692;12.844;2023-07-31T06:17:39;15.60;79.40
69382;DHT22;56560;50.692;12.844;2023-07-31T06:20:07;15.70;79.00
69382;DHT22;56560;50.692;12.844;2023-07-31T06:22:33;15.80;78.80
69382;DHT22;56560;50.692;12.844;2023-07-31T06:24:58;15.90;78.80
69382;DHT22;56560;50.692;12.844;2023-07-31T06:27:24;15.90;77.60
69382;DHT22;56560;50.692;12.844;2023-07-31T06:29:50;16.00;78.40
69382;DHT22;56560;50.692;12.844;2023-07-31T06:32:15;16.10;77.70
69382;DHT22;56560;50.692;12.844;2023-07-31T06:34:41;16.20;77.40
69382;DHT22;56560;50.692;12.844;2023-07-31T06:37:06;16.40;76.10
69382;DHT22;56560;50.692;12.844;2023-07-31T06:39:32;16.60;75.70
69382;DHT22;56560;50.692;12.844;2023-07-31T06:41:58;16.70;75.30
69382;DHT22;56560;50.692;12.844;2023-07-31T06:44:23;16.80;74.40
69382;DHT22;56560;50.692;12.844;2023-07-31T06:46:49;16.80;74.50
69382;DHT22;56560;50.692;12.844;2023-07-31T06:49:14;16.90;73.80
69382;DHT22;56560;50.692;12.844;2023-07-31T06:51:41;16.90;73.50
69382;DHT22;56560;50.692;12.844;2023-07-31T06:54:08;17.10;73.20
69382;DHT22;56560;50.692;12.844;2023-07-31T06:56:34;17.10;73.20
69382;DHT22;56560;50.692;12.844;2023-07-31T06:59:00;17.30;71.90
69382;DHT22;56560;50.692;12.844;2023-07-31T07:01:25;17.40;70.80
69382;DHT22;56560;50.692;12.844;2023-07-31T07:03:51;17.60;70.90
69382;DHT22;56560;50.692;12.844;2023-07-31T07:06:20;17.70;70.60
69382;DHT22;56560;50.692;12.844;2023-07-31T07:08:46;17.90;70.20
69382;DHT22;56560;50.692;12.844;2023-07-31T07:11:11;17.90;69.50
69382;DHT22;56560;50.692;12.844;2023-07-31T07:13:37;17.90;69.80
69382;DHT22;56560;50.692;12.844;2023-07-31T07:16:03;18.00;70.40
69382;DHT22;56560;50.692;12.844;2023-07-31T07:18:31;18.10;69.10
69382;DHT22;56560;50.692;12.844;2023-07-31T07:20:57;18.00;69.40
69382;DHT22;56560;50.692;12.844;2023-07-31T07:23:23;18.20;68.90
69382;DHT22;56560;50.692;12.844;2023-07-31T07:25:49;18.30;68.30
69382;DHT22;56560;50.692;12.844;2023-07-31T07:28:15;18.50;67.40
69382;DHT22;56560;50.692;12.844;2023-07-31T07:30:40;18.50;67.30
69382;DHT22;56560;50.692;12.844;2023-07-31T07:33:06;18.70;66.30
69382;DHT22;56560;50.692;12.844;2023-07-31T07:35:35;18.70;66.10
69382;DHT22;56560;50.692;12.844;2023-07-31T07:38:04;18.80;65.30
69382;DHT22;56560;50.692;12.844;2023-07-31T07:40:30;18.90;66.30
69382;DHT22;56560;50.692;12.844;2023-07-31T07:42:55;19.20;66.10
69382;DHT22;56560;50.692;12.844;2023-07-31T07:45:21;19.30;65.00
69382;DHT22;56560;50.692;12.844;2023-07-31T07:47:47;19.20;65.00
69382;DHT22;56560;50.692;12.844;2023-07-31T07:50:12;19.20;64.50
69382;DHT22;56560;50.692;12.844;2023-07-31T07:52:38;19.10;65.00
69382;DHT22;56560;50.692;12.844;2023-07-31T07:55:04;19.00;65.00
69382;DHT22;56560;50.692;12.844;2023-07-31T07:57:30;18.90;65.40
69382;DHT22;56560;50.692;12.844;2023-07-31T07:59:55;19.10;65.20
69382;DHT22;56560;50.692;12.844;2023-07-31T08:02:22;19.20;64.70
69382;DHT22;56560;50.692;12.844;2023-07-31T08:04:47;19.40;63.90
69382;DHT22;56560;50.692;12.844;2023-07-31T08:07:13;19.60;63.30
69382;DHT22;56560;50.692;12.844;2023-07-31T08:09:40;19.50;63.40
69382;DHT22;56560;50.692;12.844;2023-07-31T08:12:06;19.50;64.20
69382;DHT22;56560;50.692;12.844;2023-07-31T08:14:32;19.40;64.20
69382;DHT22;56560;50.692;12.844;2023-07-31T08:16:58;19.20;64.90
69382;DHT22;56560;50.692;12.844;2023-07-31T08:19:24;19.10;64.80
69382;DHT22;56560;50.692;12.844;2023-07-31T08:21:49;19.00;64.90
69382;DHT22;56560;50.692;12.844;2023-07-31T08:24:15;18.80;65.80
69382;DHT22;56560;50.692;12.844;2023-07-31T08:26:41;18.60;66.10
69382;DHT22;56560;50.692;12.844;2023-07-31T08:29:06;18.50;67.10
69382;DHT22;56560;50.692;12.844;2023-07-31T08:31:32;18.50;67.20
69382;DHT22;56560;50.692;12.844;2023-07-31T08:33:58;18.50;66.50
69382;DHT22;56560;50.692;12.844;2023-07-31T08:36:23;18.60;66.70
69382;DHT22;56560;50.692;12.844;2023-07-31T08:38:52;18.60;66.60
69382;DHT22;56560;50.692;12.844;2023-07-31T08:41:18;18.80;66.00
69382;DHT22;56560;50.692;12.844;2023-07-31T08:43:45;18.70;65.60
69382;DHT22;56560;50.692;12.844;2023-07-31T08:46:11;18.60;65.80
69382;DHT22;56560;50.692;12.844;2023-07-31T08:48:37;18.50;66.90
69382;DHT22;56560;50.692;12.844;2023-07-31T08:51:06;18.40;67.20
69382;DHT22;56560;50.692;12.844;2023-07-31T08:53:32;18.30;67.80
69382;DHT22;56560;50.692;12.844;2023-07-31T08:55:58;18.20;67.80
69382;DHT22;56560;50.692;12.844;2023-07-31T08:58:25;18.10;68.50
69382;DHT22;56560;50.692;12.844;2023-07-31T09:00:54;18.00;68.20
69382;DHT22;56560;50.692;12.844;2023-07-31T09:03:23;18.00;68.30
69382;DHT22;56560;50.692;12.844;2023-07-31T09:05:50;18.00;68.50
69382;DHT22;56560;50.692;12.844;2023-07-31T09:08:19;18.10;68.30
69382;DHT22;56560;50.692;12.844;2023-07-31T09:10:46;18.30;68.30
69382;DHT22;56560;50.692;12.844;2023-07-31T09:13:15;18.50;67.60
69382;DHT22;56560;50.692;12.844;2023-07-31T09:15:44;18.80;66.10
69382;DHT22;56560;50.692;12.844;2023-07-31T09:18:10;19.10;65.20
69382;DHT22;56560;50.692;12.844;2023-07-31T09:20:36;19.20;65.20
69382;DHT22;56560;50.692;12.844;2023-07-31T09:23:13;19.40;64.90
69382;DHT22;56560;50.692;12.844;2023-07-31T09:25:41;19.20;65.00
69382;DHT22;56560;50.692;12.844;2023-07-31T09:28:10;19.10;66.40
69382;DHT22;56560;50.692;12.844;2023-07-31T09:30:48;18.80;67.50
69382;DHT22;56560;50.692;12.844;2023-07-31T09:33:14;18.70;67.40
69382;DHT22;56560;50.692;12.844;2023-07-31T09:35:40;18.60;67.60
69382;DHT22;56560;50.692;12.844;2023-07-31T09:38:09;18.60;67.20
69382;DHT22;56560;50.692;12.844;2023-07-31T09:40:37;18.60;67.00
69382;DHT22;56560;50.692;12.844;2023-07-31T09:43:04;18.60;67.90
69382;DHT22;56560;50.692;12.844;2023-07-31T09:45:34;18.60;67.70
69382;DHT22;56560;50.692;12.844;2023-07-31T09:48:02;18.80;68.00
69382;DHT22;56560;50.692;12.844;2023-07-31T09:50:30;18.80;66.10
69382;DHT22;56560;50.692;12.844;2023-07-31T09:52:56;19.00;66.50
69382;DHT22;56560;50.692;12.844;2023-07-31T09:55:25;19.00;66.40
69382;DHT22;56560;50.692;12.844;2023-07-31T09:57:51;19.10;65.70
69382;DHT22;56560;50.692;12.844;2023-07-31T10:00:19;19.30;65.20
69382;DHT22;56560;50.692;12.844;2023-07-31T10:02:48;19.40;65.10
69382;DHT22;56560;50.692;12.844;2023-07-31T10:05:15;19.40;64.40
69382;DHT22;56560;50.692;12.844;2023-07-31T10:07:54;19.50;64.90
69382;DHT22;56560;50.692;12.844;2023-07-31T10:10:22;19.40;64.40
69382;DHT22;56560;50.692;12.844;2023-07-31T10:12:52;19.60;64.40
69382;DHT22;56560;50.692;12.844;2023-07-31T10:15:19;19.70;64.80
69382;DHT22;56560;50.692;12.844;2023-07-31T10:17:47;19.80;64.10
69382;DHT22;56560;50.692;12.844;2023-07-31T10:20:14;19.80;63.90
69382;DHT22;56560;50.692;12.844;2023-07-31T10:22:44;20.20;63.50
69382;DHT22;56560;50.692;12.844;2023-07-31T10:25:14;20.60;61.90
69382;DHT22;56560;50.692;12.844;2023-07-31T10:27:40;21.00;60.70
69382;DHT22;56560;50.692;12.844;2023-07-31T10:30:09;21.30;60.30
69382;DHT22;56560;50.692;12.844;2023-07-31T10:32:38;21.30;60.00
69382;DHT22;56560;50.692;12.844;2023-07-31T10:35:06;21.10;61.10
69382;DHT22;56560;50.692;12.844;2023-07-31T10:37:40;20.80;60.40
69382;DHT22;56560;50.692;12.844;2023-07-31T10:40:19;20.80;61.10
69382;DHT22;56560;50.692;12.844;2023-07-31T10:42:52;20.90;61.70
69382;DHT22;56560;50.692;12.844;2023-07-31T10:45:35;20.80;61.50
69382;DHT22;56560;50.692;12.844;2023-07-31T10:48:04;20.60;62.60
69382;DHT22;56560;50.692;12.844;2023-07-31T10:50:33;20.90;64.20
69382;DHT22;56560;50.692;12.844;2023-07-31T10:53:02;21.40;61.30
69382;DHT22;56560;50.692;12.844;2023-07-31T10:55:41;21.90;61.20
69382;DHT22;56560;50.692;12.844;2023-07-31T10:58:11;22.50;59.30
69382;DHT22;56560;50.692;12.844;2023-07-31T11:00:43;23.20;57.00
69382;DHT22;56560;50.692;12.844;2023-07-31T11:03:12;23.70;54.20
69382;DHT22;56560;50.692;12.844;2023-07-31T11:05:52;23.80;53.10
69382;DHT22;56560;50.692;12.844;2023-07-31T11:08:24;24.00;53.00
69382;DHT22;56560;50.692;12.844;2023-07-31T11:11:09;24.10;53.40
69382;DHT22;56560;50.692;12.844;2023-07-31T11:13:46;24.10;52.10
69382;DHT22;56560;50.692;12.844;2023-07-31T11:16:14;23.80;52.10
69382;DHT22;56560;50.692;12.844;2023-07-31T11:18:42;23.20;53.50
69382;DHT22;56560;50.692;12.844;2023-07-31T11:21:19;23.40;53.60
69382;DHT22;56560;50.692;12.844;2023-07-31T11:23:50;23.90;52.80
69382;DHT22;56560;50.692;12.844;2023-07-31T11:26:16;23.80;53.10
69382;DHT22;56560;50.692;12.844;2023-07-31T11:28:42;23.60;52.50
69382;DHT22;56560;50.692;12.844;2023-07-31T11:31:11;23.60;52.90
69382;DHT22;56560;50.692;12.844;2023-07-31T11:33:36;23.30;52.90
69382;DHT22;56560;50.692;12.844;2023-07-31T11:36:02;23.30;53.20
69382;DHT22;56560;50.692;12.844;2023-07-31T11:38:30;23.50;52.90
69382;DHT22;56560;50.692;12.844;2023-07-31T11:41:02;23.30;53.00
69382;DHT22;56560;50.692;12.844;2023-07-31T11:43:28;23.40;52.90
69382;DHT22;56560;50.692;12.844;2023-07-31T11:45:55;23.40;52.80
69382;DHT22;56560;50.692;12.844;2023-07-31T11:48:26;23.80;52.10
69382;DHT22;56560;50.692;12.844;2023-07-31T11:51:00;24.40;50.70
69382;DHT22;56560;50.692;12.844;2023-07-31T11:53:43;24.90;48.20
69382;DHT22;56560;50.692;12.844;2023-07-31T11:56:11;25.30;48.70
69382;DHT22;56560;50.692;12.844;2023-07-31T11:58:38;25.30;47.70
69382;DHT22;56560;50.692;12.844;2023-07-31T12:01:05;24.90;48.30
69382;DHT22;56560;50.692;12.844;2023-07-31T12:03:31;24.30;50.50
69382;DHT22;56560;50.692;12.844;2023-07-31T12:05:59;23.70;51.30
69382;DHT22;56560;50.692;12.844;2023-07-31T12:08:25;23.70;51.10
69382;DHT22;56560;50.692;12.844;2023-07-31T12:10:52;24.00;51.20
69382;DHT22;56560;50.692;12.844;2023-07-31T12:13:25;23.90;51.30
69382;DHT22;56560;50.692;12.844;2023-07-31T12:15:56;24.00;51.20
69382;DHT22;56560;50.692;12.844;2023-07-31T12:18:24;24.20;50.50
69382;DHT22;56560;50.692;12.844;2023-07-31T12:20:55;24.60;49.10
69382;DHT22;56560;50.692;12.844;2023-07-31T12:23:24;25.00;48.00
69382;DHT22;56560;50.692;12.844;2023-07-31T12:26:14;25.60;47.00
69382;DHT22;56560;50.692;12.844;2023-07-31T12:28:47;26.30;46.10
69382;DHT22;56560;50.692;12.844;2023-07-31T12:31:22;26.90;44.80
69382;DHT22;56560;50.692;12.844;2023-07-31T12:33:50;27.30;44.60
69382;DHT22;56560;50.692;12.844;2023-07-31T12:36:18;27.20;44.10
69382;DHT22;56560;50.692;12.844;2023-07-31T12:38:44;26.10;45.30
69382;DHT22;56560;50.692;12.844;2023-07-31T12:41:10;25.20;47.50
69382;DHT22;56560;50.692;12.844;2023-07-31T12:43:37;25.30;48.00
69382;DHT22;56560;50.692;12.844;2023-07-31T12:46:03;25.40;47.80
69382;DHT22;56560;50.692;12.844;2023-07-31T12:48:29;25.10;48.00
69382;DHT22;56560;50.692;12.844;2023-07-31T12:50:55;24.70;48.50
69382;DHT22;56560;50.692;12.844;2023-07-31T12:53:21;24.50;48.90
69382;DHT22;56560;50.692;12.844;2023-07-31T12:55:46;24.20;50.40
69382;DHT22;56560;50.692;12.844;2023-07-31T12:58:12;24.20;50.50
69382;DHT22;56560;50.692;12.844;2023-07-31T13:00:38;24.20;51.20
69382;DHT22;56560;50.692;12.844;2023-07-31T13:03:04;23.70;51.80
69382;DHT22;56560;50.692;12.844;2023-07-31T13:05:29;23.20;52.10
69382;DHT22;56560;50.692;12.844;2023-07-31T13:07:55;22.90;53.90
69382;DHT22;56560;50.692;12.844;2023-07-31T13:10:22;23.10;54.10
69382;DHT22;56560;50.692;12.844;2023-07-31T13:12:48;23.20;53.50
69382;DHT22;56560;50.692;12.844;2023-07-31T13:15:14;23.20;53.60
69382;DHT22;56560;50.692;12.844;2023-07-31T13:17:40;23.00;54.50
69382;DHT22;56560;50.692;12.844;2023-07-31T13:20:07;22.80;54.80
69382;DHT22;56560;50.692;12.844;2023-07-31T13:22:32;22.70;54.50
69382;DHT22;56560;50.692;12.844;2023-07-31T13:24:58;22.90;55.10
69382;DHT22;56560;50.692;12.844;2023-07-31T13:27:24;23.10;55.70
69382;DHT22;56560;50.692;12.844;2023-07-31T13:29:50;23.20;54.20
69382;DHT22;56560;50.692;12.844;2023-07-31T13:32:16;23.10;54.90
69382;DHT22;56560;50.692;12.844;2023-07-31T13:34:43;23.00;55.10
69382;DHT22;56560;50.692;12.844;2023-07-31T13:37:08;23.50;53.90
69382;DHT22;56560;50.692;12.844;2023-07-31T13:39:34;24.70;49.80
69382;DHT22;56560;50.692;12.844;2023-07-31T13:42:01;25.80;48.10
69382;DHT22;56560;50.692;12.844;2023-07-31T13:44:27;26.30;47.10
69382;DHT22;56560;50.692;12.844;2023-07-31T13:46:53;26.20;46.50
69382;DHT22;56560;50.692;12.844;2023-07-31T13:49:18;26.20;46.80
69382;DHT22;56560;50.692;12.844;2023-07-31T13:51:44;27.60;44.30
69382;DHT22;56560;50.692;12.844;2023-07-31T13:54:10;28.10;43.30
69382;DHT22;56560;50.692;12.844;2023-07-31T13:56:38;28.20;43.10
69382;DHT22;56560;50.692;12.844;2023-07-31T13:59:04;27.50;43.30
69382;DHT22;56560;50.692;12.844;2023-07-31T14:01:30;27.10;44.50
69382;DHT22;56560;50.692;12.844;2023-07-31T14:03:56;26.80;44.60
69382;DHT22;56560;50.692;12.844;2023-07-31T14:06:22;25.80;46.50
69382;DHT22;56560;50.692;12.844;2023-07-31T14:08:47;24.50;48.90
69382;DHT22;56560;50.692;12.844;2023-07-31T14:11:13;23.40;51.50
69382;DHT22;56560;50.692;12.844;2023-07-31T14:13:38;22.90;53.10
69382;DHT22;56560;50.692;12.844;2023-07-31T14:16:04;22.40;53.70
69382;DHT22;56560;50.692;12.844;2023-07-31T14:18:29;22.20;54.50
69382;DHT22;56560;50.692;12.844;2023-07-31T14:20:56;23.40;52.50
69382;DHT22;56560;50.692;12.844;2023-07-31T14:23:22;25.50;48.60
69382;DHT22;56560;50.692;12.844;2023-07-31T14:25:48;27.10;44.40
69382;DHT22;56560;50.692;12.844;2023-07-31T14:28:13;28.00;43.30
69382;DHT22;56560;50.692;12.844;2023-07-31T14:30:39;28.70;42.10
69382;DHT22;56560;50.692;12.844;2023-07-31T14:33:05;28.80;41.40
69382;DHT22;56560;50.692;12.844;2023-07-31T14:35:31;28.50;41.70
69382;DHT22;56560;50.692;12.844;2023-07-31T14:37:56;28.70;41.50
69382;DHT22;56560;50.692;12.844;2023-07-31T14:40:22;29.50;40.90
69382;DHT22;56560;50.692;12.844;2023-07-31T14:42:48;29.80;39.90
69382;DHT22;56560;50.692;12.844;2023-07-31T14:45:13;29.40;41.10
69382;DHT22;56560;50.692;12.844;2023-07-31T14:47:39;29.80;40.80
69382;DHT22;56560;50.692;12.844;2023-07-31T14:50:05;29.30;40.60
69382;DHT22;56560;50.692;12.844;2023-07-31T14:52:31;28.80;41.40
69382;DHT22;56560;50.692;12.844;2023-07-31T14:54:56;28.50;41.90
69382;DHT22;56560;50.692;12.844;2023-07-31T14:57:22;27.30;44.20
69382;DHT22;56560;50.692;12.844;2023-07-31T14:59:48;26.50;45.00
69382;DHT22;56560;50.692;12.844;2023-07-31T15:02:14;25.80;46.30
69382;DHT22;56560;50.692;12.844;2023-07-31T15:04:41;24.80;47.30
69382;DHT22;56560;50.692;12.844;2023-07-31T15:07:07;24.20;48.20
69382;DHT22;56560;50.692;12.844;2023-07-31T15:09:32;24.00;49.30
69382;DHT22;56560;50.692;12.844;2023-07-31T15:11:58;23.50;50.90
69382;DHT22;56560;50.692;12.844;2023-07-31T15:14:25;23.20;51.80
69382;DHT22;56560;50.692;12.844;2023-07-31T15:16:52;23.10;52.10
69382;DHT22;56560;50.692;12.844;2023-07-31T15:19:18;22.70;52.40
69382;DHT22;56560;50.692;12.844;2023-07-31T15:21:44;22.50;52.80
69382;DHT22;56560;50.692;12.844;2023-07-31T15:24:09;22.40;53.40